Crary, North Dakota
Current Conditions -  °F | °C
As of 8:55 PM on Friday 21 Nov 2014 (Local Time) from KDVL Reporting Station
Clear Clear  
Wind Chill: 29°   Ceiling: Unl
Heat Index: 37°   Visibility: 10mi
Dew Point: 25°   Wind: 14mph
Humidity: 60%   Direction: 250°WSW
Pressure: 29.58"   Gusts: NA
Location:  48.07°N, 98.64°W
Report Text: KDVL 220255Z AUTO 25012KT 10SM CLR 03/M04 A2958 RMK AO1 52003
Loading
Personal Weather Stations






























Interactive Weather Map New forecast layout! Learn more

10-Day Weather Forecast

Advertisements
Track Severe Weather on mobile